Terminal Aerodrome Forecast
Issued by NWS

Home | Current Version | Previous Version | Text Only | Print | Product List | Glossary On
Versions: 1 2 3 4 5 6 7 8 9 10 11 12 13 14 15 16 17 18 19 20 21 22 23
000
FTUS45 KGJT 240524
TAFASE
TAF
KASE 240524Z 2406/2506 19005KT P6SM SKC
     FM241700 18008KT P6SM FEW080 SCT150
     FM242000 24010KT P6SM FEW080 SCT120
     FM242200 28009KT P6SM FEW070 SCT110
     FM250200 22005KT P6SM FEW070 FEW140=

USA.gov is the U.S. government's official web portal to all federal, state and local government web resources and services.